Terminal Aerodrome Forecast
Issued by NWS

Home | Current Version | Previous Version | Text Only | Print | Product List | Glossary On
Versions: 1 2 3 4 5 6 7 8 9 10 11 12 13 14 15 16
000
FTUS44 KLZK 011700
TAFHRO
TAF
KHRO 011736Z 0118/0218 27012G23KT P6SM OVC014
      TEMPO 0120/0124 SCT015 SCT025
     FM020000 30012G20KT P6SM BKN015 BKN025
     FM021000 32009G16KT P6SM SCT025=

USA.gov is the U.S. government's official web portal to all federal, state and local government web resources and services.